CST,Max TemperatureF,Mean TemperatureF,Min TemperatureF,Max Dew PointF,MeanDew PointF,Min DewpointF,Max Humidity, Mean Humidity, Min Humidity, Max Sea Level PressureIn, Mean Sea Level PressureIn, Min Sea Level PressureIn, Max VisibilityMiles, Mean VisibilityMiles, Min VisibilityMiles, Max Wind SpeedMPH, Mean Wind SpeedMPH, Max Gust SpeedMPH,PrecipitationIn, CloudCover, Events, WindDirDegrees
2012-11-1,49,38,27,32,25,18,85,65,45,29.96,29.86,29.82,10,10,10,21,9,25,T,6,,304
2012-11-2,45,37,28,27,25,22,85,67,49,30.22,30.10,29.97,10,10,10,16,7,20,0.00,2,,2
2012-11-3,42,34,25,28,25,21,85,72,59,30.29,30.26,30.21,10,10,10,9,4,12,0.00,3,,351
2012-11-4,43,34,25,27,25,22,92,73,53,30.31,30.27,30.25,10,10,8,9,3,12,0.00,4,,356
2012-11-5,40,33,25,27,25,22,92,73,54,30.29,30.23,30.12,10,10,7,14,5,15,T,7,,28
2012-11-6,42,33,24,36,31,22,92,78,64,30.12,29.95,29.86,10,6,2,14,5,17,0.04,7,Rain,174
2012-11-7,43,39,34,38,36,33,100,91,82,30.17,30.08,29.93,6,3,1,5,1,9,0.01,8,Rain,299
2012-11-8,47,40,33,37,34,32,100,80,60,30.18,30.12,30.05,10,6,3,16,7,22,0.00,5,,190
2012-11-9,48,45,41,43,40,36,89,83,76,30.13,30.09,30.06,10,6,3,18,9,24,T,8,,46
2012-11-10,64,54,43,52,45,39,93,77,60,30.10,29.93,29.74,10,6,2,21,9,28,0.03,7,Rain,92
2012-11-11,64,51,37,54,48,34,96,78,60,29.85,29.72,29.62,10,7,2,25,13,31,0.84,6,Rain,211
2012-11-12,37,32,26,32,20,15,89,74,58,30.28,30.03,29.85,10,9,3,26,15,36,T,8,Snow,255
2012-11-13,36,29,22,25,21,16,78,69,59,30.47,30.42,30.30,10,10,10,15,7,20,0.00,0,,216
2012-11-14,46,37,28,30,28,24,85,69,53,30.48,30.40,30.33,10,10,10,16,8,21,0.00,3,,179
2012-11-15,49,41,32,35,31,27,89,73,56,30.38,30.30,30.25,10,8,5,14,8,35,0.00,2,,201
2012-11-16,44,36,28,31,28,24,92,77,62,30.54,30.49,30.39,10,10,9,16,6,20,0.00,1,,31
2012-11-17,52,39,26,38,32,25,100,80,59,30.53,30.49,30.43,10,5,0,13,5,16,0.00,3,Fog,186
2012-11-18,55,44,33,40,35,30,92,73,54,30.44,30.38,30.29,10,5,2,16,7,22,0.00,0,,170
2012-11-19,52,43,34,43,38,31,86,73,59,30.29,30.19,30.09,7,6,4,10,4,14,T,5,,178
2012-11-20,57,47,36,45,41,33,100,76,51,30.16,30.11,30.07,8,3,0,8,1,10,0.00,3,Fog,245
2012-11-21,55,44,32,43,36,30,100,80,59,30.17,30.09,29.95,9,3,0,18,8,24,0.00,1,Fog,203
2012-11-22,61,51,40,45,41,30,82,67,51,29.94,29.73,29.61,10,9,6,30,15,40,0.00,3,,210
2012-11-23,40,33,26,27,19,16,75,63,51,30.19,29.96,29.72,10,10,6,31,22,41,T,8,Snow,291
2012-11-24,31,28,25,23,16,13,68,58,47,30.24,30.11,29.91,10,8,2,17,8,22,0.02,6,Snow,247
2012-11-25,33,28,22,25,22,13,92,77,61,30.11,29.90,29.81,10,7,1,16,7,32,0.10,7,Snow,248
2012-11-26,27,20,13,20,13,7,75,63,50,30.39,30.27,30.10,10,10,10,17,8,22,0.00,3,,298
2012-11-27,31,21,11,18,12,6,76,63,49,30.39,30.26,30.14,10,10,6,16,8,22,T,4,Snow,232
2012-11-28,35,28,20,22,18,14,84,68,51,30.34,30.26,30.18,10,10,8,18,7,21,0.00,1,,249
2012-11-29,40,34,28,30,27,22,89,74,59,30.23,30.19,30.15,10,9,6,22,10,28,0.00,5,,50
2012-11-30,38,36,34,34,32,30,96,89,82,30.26,30.22,30.16,10,6,2,22,12,28,0.01,8,,51